Time;durP1;ratioP1;P1;durP2;ratioP2;P2;SDS_P1;SDS_P2;PMS_P1;PMS_P2;Temp;Humidity;BMP_temperature;BMP_pressure;BME280_temperature;BME280_humidity;BME280_pressure;Samples;Min_cycle;Max_cycle;Signal;HPM_P1;HPM_P2
2021/07/20 00:01:14;;;;;;;;;;;23.40;90.50;;;;;;5035201;28;19991;-76
2021/07/20 00:03:41;;;;;;;;;;;23.60;90.10;;;;;;5034807;28;19913;-78
2021/07/20 00:06:06;;;;;;;;;;;23.60;90.00;;;;;;5034935;28;19909;-77
2021/07/20 00:08:32;;;;;;;;;;;23.30;90.30;;;;;;5034500;28;19944;-78
2021/07/20 00:11:00;;;;;;;;;;;23.30;90.50;;;;;;5033334;28;19936;-78
2021/07/20 00:13:25;;;;;;;;;;;23.20;90.50;;;;;;5034918;28;19909;-77
2021/07/20 00:15:54;;;;;;;;;;;23.10;91.10;;;;;;5034468;28;19916;-77
2021/07/20 00:18:22;;;;;;;;;;;23.30;90.50;;;;;;5034548;28;19951;-79
2021/07/20 00:20:47;;;;;;;;;;;23.10;91.00;;;;;;5033192;28;20334;-77
2021/07/20 00:23:13;;;;;;;;;;;23.10;91.30;;;;;;5034392;28;19936;-78
2021/07/20 00:25:39;;;;;;;;;;;23.00;90.80;;;;;;5034385;28;20281;-77
2021/07/20 00:28:05;;;;;;;;;;;22.90;90.90;;;;;;5034295;28;20336;-76
2021/07/20 00:30:30;;;;;;;;;;;22.90;90.80;;;;;;5034296;28;19909;-78
2021/07/20 00:32:56;;;;;;;;;;;22.80;90.90;;;;;;5034243;28;20347;-79
2021/07/20 00:35:22;;;;;;;;;;;22.70;91.20;;;;;;5034349;28;20278;-77
2021/07/20 00:37:48;;;;;;;;;;;22.80;91.30;;;;;;5034201;28;20290;-78
2021/07/20 00:40:15;;;;;;;;;;;22.70;91.20;;;;;;5034142;28;19916;-78
2021/07/20 00:42:41;;;;;;;;;;;22.30;91.60;;;;;;5034056;28;19910;-78
2021/07/20 00:45:08;;;;;;;;;;;22.30;91.70;;;;;;5034007;28;19916;-77
2021/07/20 00:47:34;;;;;;;;;;;22.30;92.10;;;;;;5032665;28;19910;-77
2021/07/20 00:50:00;;;;;;;;;;;22.70;91.70;;;;;;5034182;28;19916;-78
2021/07/20 00:52:25;;;;;;;;;;;22.80;91.40;;;;;;5033713;28;20294;-77
2021/07/20 00:54:51;;;;;;;;;;;22.80;90.90;;;;;;5033720;28;19916;-77
2021/07/20 00:57:17;;;;;;;;;;;22.60;91.10;;;;;;5033835;28;20437;-77
2021/07/20 00:59:43;;;;;;;;;;;22.40;91.40;;;;;;5034045;28;20389;-77
2021/07/20 01:02:08;;;;;;;;;;;22.30;91.70;;;;;;5032007;28;19916;-78
2021/07/20 01:04:34;;;;;;;;;;;22.40;91.50;;;;;;5033963;28;19956;-77
2021/07/20 01:07:00;;;;;;;;;;;22.40;91.50;;;;;;5033839;28;19909;-77
2021/07/20 01:09:27;;;;;;;;;;;22.30;91.40;;;;;;5033433;28;20333;-78
2021/07/20 01:11:53;;;;;;;;;;;22.50;91.20;;;;;;5033688;28;19909;-78
2021/07/20 01:14:19;;;;;;;;;;;22.50;91.30;;;;;;5032413;28;20415;-77
2021/07/20 01:16:45;;;;;;;;;;;22.40;91.40;;;;;;5033569;28;19995;-78
2021/07/20 01:19:13;;;;;;;;;;;22.20;92.00;;;;;;5033644;28;19909;-77
2021/07/20 01:21:39;;;;;;;;;;;22.20;92.50;;;;;;5033650;28;19916;-78
2021/07/20 01:24:11;;;;;;;;;;;22.20;92.20;;;;;;5033361;28;19909;-76
2021/07/20 01:26:37;;;;;;;;;;;22.20;91.40;;;;;;5033551;28;19958;-77
2021/07/20 01:29:05;;;;;;;;;;;22.20;91.30;;;;;;5033659;28;19992;-77
2021/07/20 01:31:31;;;;;;;;;;;22.10;91.80;;;;;;5033505;28;20424;-76
2021/07/20 01:33:58;;;;;;;;;;;22.00;91.90;;;;;;5033602;28;19909;-78
2021/07/20 01:36:24;;;;;;;;;;;21.90;92.00;;;;;;5033411;28;20020;-78
2021/07/20 01:38:51;;;;;;;;;;;21.70;92.00;;;;;;5033426;28;19916;-78
2021/07/20 01:41:18;;;;;;;;;;;21.90;91.50;;;;;;5033686;28;20384;-77
2021/07/20 01:43:45;;;;;;;;;;;22.00;91.30;;;;;;5032123;28;19909;-78
2021/07/20 01:46:11;;;;;;;;;;;21.70;91.70;;;;;;5033171;28;20293;-78
2021/07/20 01:48:38;;;;;;;;;;;21.70;91.80;;;;;;5033344;28;19909;-78
2021/07/20 01:51:04;;;;;;;;;;;21.70;91.90;;;;;;5033464;28;20416;-78
2021/07/20 01:53:31;;;;;;;;;;;21.60;92.50;;;;;;5033296;28;19909;-78
2021/07/20 01:55:59;;;;;;;;;;;21.60;92.30;;;;;;5033191;28;19916;-79
2021/07/20 01:58:25;;;;;;;;;;;21.80;92.50;;;;;;5033251;28;20285;-77
2021/07/20 02:00:51;;;;;;;;;;;21.80;92.10;;;;;;5033267;28;19909;-78
2021/07/20 02:08:49;;;;;;;;;;;21.30;94.00;;;;;;5036810;28;19931;-77
2021/07/20 02:11:20;;;;;;;;;;;21.30;93.90;;;;;;5037030;28;19915;-77
2021/07/20 02:13:52;;;;;;;;;;;21.10;94.30;;;;;;5037204;28;19916;-76
2021/07/20 02:16:18;;;;;;;;;;;21.20;93.80;;;;;;5036984;28;20009;-77
2021/07/20 02:18:46;;;;;;;;;;;21.40;93.30;;;;;;5036781;28;20378;-76
2021/07/20 02:21:12;;;;;;;;;;;21.40;93.10;;;;;;5036668;28;19909;-78
2021/07/20 02:23:38;;;;;;;;;;;21.50;92.90;;;;;;5036666;28;19920;-77
2021/07/20 02:26:05;;;;;;;;;;;21.70;92.10;;;;;;5037046;28;19988;-77
2021/07/20 02:28:30;;;;;;;;;;;21.60;91.70;;;;;;5035292;28;19909;-77
2021/07/20 02:30:57;;;;;;;;;;;21.50;91.80;;;;;;5036646;28;19916;-78
2021/07/20 02:33:23;;;;;;;;;;;21.40;91.90;;;;;;5035178;28;20337;-77
2021/07/20 02:35:50;;;;;;;;;;;21.30;91.70;;;;;;5036404;28;19913;-78
2021/07/20 02:38:17;;;;;;;;;;;21.30;91.60;;;;;;5035141;28;20336;-78
2021/07/20 02:40:44;;;;;;;;;;;21.30;91.80;;;;;;5036428;28;19909;-77
2021/07/20 02:43:10;;;;;;;;;;;21.30;91.90;;;;;;5035026;28;19964;-77
2021/07/20 02:45:37;;;;;;;;;;;21.20;92.20;;;;;;5036313;28;19913;-77
2021/07/20 02:48:03;;;;;;;;;;;21.10;92.40;;;;;;5036633;28;19909;-78
2021/07/20 02:50:28;;;;;;;;;;;21.10;92.60;;;;;;5036131;28;19920;-77
2021/07/20 02:52:55;;;;;;;;;;;21.10;92.70;;;;;;5036230;28;19910;-78
2021/07/20 02:55:20;;;;;;;;;;;21.00;93.30;;;;;;5036140;28;19916;-78
2021/07/20 02:57:47;;;;;;;;;;;21.10;93.20;;;;;;5036145;28;19913;-78
2021/07/20 03:00:13;;;;;;;;;;;21.10;92.30;;;;;;5035869;28;20277;-76
2021/07/20 03:02:42;;;;;;;;;;;21.00;92.40;;;;;;5035985;28;19915;-78
2021/07/20 03:05:17;;;;;;;;;;;20.80;93.20;;;;;;5034639;28;20387;-77
2021/07/20 03:07:48;;;;;;;;;;;20.50;94.40;;;;;;5035952;28;19909;-77
2021/07/20 03:10:15;;;;;;;;;;;20.60;94.50;;;;;;5036445;28;19917;-78
2021/07/20 03:12:44;;;;;;;;;;;20.60;94.90;;;;;;5034512;28;19909;-78
2021/07/20 03:15:10;;;;;;;;;;;20.60;94.50;;;;;;5035742;28;19910;-78
2021/07/20 03:17:35;;;;;;;;;;;20.60;94.90;;;;;;5035245;28;20320;-78
2021/07/20 03:20:02;;;;;;;;;;;20.50;94.60;;;;;;5035758;28;19917;-77
2021/07/20 03:22:29;;;;;;;;;;;20.60;94.70;;;;;;5035609;28;19913;-78
2021/07/20 03:24:56;;;;;;;;;;;20.60;94.70;;;;;;5035461;28;19944;-77
2021/07/20 03:27:22;;;;;;;;;;;20.50;94.70;;;;;;5034196;28;20289;-77
2021/07/20 03:29:48;;;;;;;;;;;20.50;94.80;;;;;;5035464;28;19913;-78
2021/07/20 03:32:15;;;;;;;;;;;20.60;93.90;;;;;;5035371;28;19916;-78
2021/07/20 03:34:42;;;;;;;;;;;20.80;93.00;;;;;;5035341;28;19920;-77
2021/07/20 03:37:08;;;;;;;;;;;20.90;92.70;;;;;;5035179;28;20296;-78
2021/07/20 03:39:36;;;;;;;;;;;20.60;93.10;;;;;;5035436;28;20001;-78
2021/07/20 03:42:02;;;;;;;;;;;20.70;92.70;;;;;;5035205;28;19909;-77
2021/07/20 03:44:29;;;;;;;;;;;20.70;92.40;;;;;;5035174;28;19916;-77
2021/07/20 03:46:56;;;;;;;;;;;20.70;92.30;;;;;;5035116;28;19909;-76
2021/07/20 03:49:22;;;;;;;;;;;20.60;92.20;;;;;;5035520;28;19909;-77
2021/07/20 03:51:48;;;;;;;;;;;20.50;92.30;;;;;;5033761;28;20385;-76
2021/07/20 03:54:14;;;;;;;;;;;20.40;92.30;;;;;;5034987;28;19956;-78
2021/07/20 03:56:41;;;;;;;;;;;20.30;92.30;;;;;;5034907;28;19920;-77
2021/07/20 03:59:08;;;;;;;;;;;20.30;92.40;;;;;;5033609;28;20000;-77
2021/07/20 04:01:36;;;;;;;;;;;20.20;92.50;;;;;;5034926;28;20282;-77
2021/07/20 04:04:03;;;;;;;;;;;20.10;92.80;;;;;;5034701;28;19914;-77
2021/07/20 04:06:30;;;;;;;;;;;20.20;92.80;;;;;;5034719;28;19909;-77
2021/07/20 04:08:56;;;;;;;;;;;20.10;93.00;;;;;;5033247;28;19928;-77
2021/07/20 04:11:22;;;;;;;;;;;20.10;93.10;;;;;;5033122;28;19914;-77
2021/07/20 04:13:48;;;;;;;;;;;20.00;93.20;;;;;;5035050;28;20007;-77
2021/07/20 04:16:15;;;;;;;;;;;20.10;93.40;;;;;;5034803;28;19914;-77
2021/07/20 04:18:40;;;;;;;;;;;20.00;93.60;;;;;;5034568;28;19917;-78
2021/07/20 04:21:07;;;;;;;;;;;19.90;93.60;;;;;;5034497;28;19909;-78
2021/07/20 04:23:33;;;;;;;;;;;19.90;93.40;;;;;;5034562;28;19959;-77
2021/07/20 04:25:59;;;;;;;;;;;19.80;93.60;;;;;;5034359;28;19913;-78
2021/07/20 04:28:25;;;;;;;;;;;19.80;94.20;;;;;;5033731;28;20484;-78
2021/07/20 04:30:51;;;;;;;;;;;19.50;94.80;;;;;;5034854;28;19909;-78
2021/07/20 04:33:24;;;;;;;;;;;19.40;95.60;;;;;;5032967;28;19909;-77
2021/07/20 04:35:50;;;;;;;;;;;19.50;95.60;;;;;;5034646;28;19909;-77
2021/07/20 04:38:16;;;;;;;;;;;19.70;95.60;;;;;;5034084;28;20004;-77
2021/07/20 04:40:42;;;;;;;;;;;19.90;95.30;;;;;;5034231;28;20374;-76
2021/07/20 04:43:08;;;;;;;;;;;20.10;94.60;;;;;;5034026;28;19913;-77
2021/07/20 04:45:34;;;;;;;;;;;20.00;94.20;;;;;;5034090;28;19916;-77
2021/07/20 04:47:59;;;;;;;;;;;20.10;93.60;;;;;;5034077;28;19909;-78
2021/07/20 04:50:27;;;;;;;;;;;20.10;93.00;;;;;;5032794;28;20293;-76
2021/07/20 04:52:53;;;;;;;;;;;20.00;93.00;;;;;;5033973;28;19909;-78
2021/07/20 04:55:19;;;;;;;;;;;20.00;92.90;;;;;;5033901;28;20361;-77
2021/07/20 04:57:45;;;;;;;;;;;20.00;92.60;;;;;;5034017;28;19913;-77
2021/07/20 05:00:10;;;;;;;;;;;20.00;92.50;;;;;;5033872;28;19909;-76
2021/07/20 05:02:38;;;;;;;;;;;20.00;92.40;;;;;;5034006;28;20273;-76
2021/07/20 05:05:06;;;;;;;;;;;20.00;92.70;;;;;;5033778;28;20370;-76
2021/07/20 05:07:32;;;;;;;;;;;19.90;93.80;;;;;;5033604;28;20365;-77
2021/07/20 05:09:57;;;;;;;;;;;19.90;94.00;;;;;;5034073;28;19909;-76
2021/07/20 05:12:24;;;;;;;;;;;19.60;94.70;;;;;;5033817;28;19909;-78
2021/07/20 05:14:50;;;;;;;;;;;19.80;94.90;;;;;;5033708;28;19915;-77
2021/07/20 05:17:16;;;;;;;;;;;20.10;93.80;;;;;;5033841;28;20373;-78
2021/07/20 05:19:42;;;;;;;;;;;20.20;93.10;;;;;;5033834;28;19949;-78
2021/07/20 05:22:08;;;;;;;;;;;20.20;92.90;;;;;;5033654;28;19999;-76
2021/07/20 05:24:34;;;;;;;;;;;20.10;93.10;;;;;;5033511;28;19911;-77
2021/07/20 05:27:01;;;;;;;;;;;20.20;93.30;;;;;;5033541;28;19909;-77
2021/07/20 05:29:26;;;;;;;;;;;20.30;93.40;;;;;;5033540;28;19909;-76
2021/07/20 05:31:53;;;;;;;;;;;20.40;93.40;;;;;;5033491;28;19916;-78
2021/07/20 05:34:19;;;;;;;;;;;20.40;93.60;;;;;;5033499;28;19909;-76
2021/07/20 05:36:45;;;;;;;;;;;20.50;93.60;;;;;;5033434;28;20324;-76
2021/07/20 05:39:11;;;;;;;;;;;20.60;93.30;;;;;;5034372;28;19992;-78
2021/07/20 05:41:38;;;;;;;;;;;20.70;93.00;;;;;;5037503;28;20007;-77
2021/07/20 05:44:03;;;;;;;;;;;20.80;93.00;;;;;;5037451;28;19913;-77
2021/07/20 05:46:29;;;;;;;;;;;20.80;93.00;;;;;;5036073;28;20281;-77
2021/07/20 05:48:56;;;;;;;;;;;20.90;93.00;;;;;;5037533;28;19955;-77
2021/07/20 05:51:22;;;;;;;;;;;20.90;93.00;;;;;;5037602;28;19909;-77
2021/07/20 05:53:48;;;;;;;;;;;21.10;93.20;;;;;;5037513;28;20270;-78
2021/07/20 05:56:13;;;;;;;;;;;21.10;93.10;;;;;;5037169;28;19909;-78
2021/07/20 05:58:42;;;;;;;;;;;21.20;92.90;;;;;;5035792;28;19909;-77
2021/07/20 06:01:09;;;;;;;;;;;21.20;93.10;;;;;;5037330;28;19917;-76
2021/07/20 06:03:35;;;;;;;;;;;21.20;93.10;;;;;;5036985;28;19910;-78
2021/07/20 06:06:02;;;;;;;;;;;21.30;93.40;;;;;;5037093;28;20396;-76
2021/07/20 06:08:28;;;;;;;;;;;21.50;93.40;;;;;;5036805;28;20051;-77
2021/07/20 06:10:55;;;;;;;;;;;21.50;93.50;;;;;;5035690;28;19952;-78
2021/07/20 06:13:23;;;;;;;;;;;21.60;93.50;;;;;;5036926;28;19909;-77
2021/07/20 06:15:50;;;;;;;;;;;21.70;93.40;;;;;;5036867;28;19913;-78
2021/07/20 06:18:16;;;;;;;;;;;21.80;93.30;;;;;;5036863;28;20016;-77
2021/07/20 06:20:57;;;;;;;;;;;21.90;93.10;;;;;;5037027;28;19948;-78
2021/07/20 06:23:23;;;;;;;;;;;22.00;93.20;;;;;;5036686;28;20442;-78
2021/07/20 06:25:50;;;;;;;;;;;22.20;93.20;;;;;;5036906;28;19916;-78
2021/07/20 06:28:16;;;;;;;;;;;22.20;93.50;;;;;;5036612;28;19936;-76
2021/07/20 06:30:43;;;;;;;;;;;22.30;93.60;;;;;;5036761;28;19948;-78
2021/07/20 06:33:10;;;;;;;;;;;22.40;93.60;;;;;;5036506;28;19913;-77
2021/07/20 06:35:37;;;;;;;;;;;22.40;93.80;;;;;;5036695;28;19909;-77
2021/07/20 06:38:03;;;;;;;;;;;22.60;93.80;;;;;;5036356;28;19913;-78
2021/07/20 06:40:29;;;;;;;;;;;22.50;93.90;;;;;;5036372;28;19932;-78
2021/07/20 06:42:55;;;;;;;;;;;22.40;94.30;;;;;;5036537;28;19909;-78
2021/07/20 06:45:21;;;;;;;;;;;22.70;94.10;;;;;;5036316;28;19948;-76
2021/07/20 06:47:48;;;;;;;;;;;22.90;93.90;;;;;;5036304;28;19960;-78
2021/07/20 06:50:17;;;;;;;;;;;23.00;93.80;;;;;;5036112;28;20289;-76
2021/07/20 06:52:43;;;;;;;;;;;23.10;93.60;;;;;;5036146;28;19990;-77
2021/07/20 06:55:10;;;;;;;;;;;23.30;93.60;;;;;;5036226;28;19956;-79
2021/07/20 06:57:37;;;;;;;;;;;23.40;93.50;;;;;;5035979;28;20338;-77
2021/07/20 07:00:04;;;;;;;;;;;23.50;93.30;;;;;;5036028;28;19932;-78
2021/07/20 07:02:30;;;;;;;;;;;23.50;93.60;;;;;;5035924;28;19910;-78
2021/07/20 07:05:03;;;;;;;;;;;23.60;93.40;;;;;;5036017;28;19917;-77
2021/07/20 07:07:30;;;;;;;;;;;23.60;93.50;;;;;;5035828;28;19913;-77
2021/07/20 07:09:56;;;;;;;;;;;23.80;91.60;;;;;;5035858;28;19920;-77
2021/07/20 07:12:22;;;;;;;;;;;23.80;92.60;;;;;;5035762;28;20322;-77
2021/07/20 07:14:49;;;;;;;;;;;23.90;91.70;;;;;;5036116;28;19947;-78
2021/07/20 07:17:15;;;;;;;;;;;24.00;91.70;;;;;;5035855;28;19917;-77
2021/07/20 07:19:41;;;;;;;;;;;24.10;91.60;;;;;;5034418;28;19909;-78
2021/07/20 07:22:07;;;;;;;;;;;24.20;91.50;;;;;;5035843;28;19910;-79
2021/07/20 07:24:34;;;;;;;;;;;24.30;91.70;;;;;;5035470;28;20392;-78
2021/07/20 07:27:01;;;;;;;;;;;24.40;91.50;;;;;;5035720;28;20421;-78
2021/07/20 07:29:27;;;;;;;;;;;24.30;90.80;;;;;;5035553;28;19909;-79
2021/07/20 07:31:52;;;;;;;;;;;24.30;90.90;;;;;;5035463;28;20420;-78
2021/07/20 07:34:18;;;;;;;;;;;24.40;90.40;;;;;;5035391;28;19959;-79
2021/07/20 07:36:44;;;;;;;;;;;25.00;90.00;;;;;;5035053;28;20297;-78
2021/07/20 07:39:10;;;;;;;;;;;26.00;85.70;;;;;;5035309;28;19959;-77
2021/07/20 07:41:40;;;;;;;;;;;26.90;81.60;;;;;;5035303;28;19909;-79
2021/07/20 07:44:09;;;;;;;;;;;27.70;78.70;;;;;;5034712;28;19917;-77
2021/07/20 07:46:35;;;;;;;;;;;28.10;77.90;;;;;;5035555;28;19909;-78
2021/07/20 07:49:01;;;;;;;;;;;28.70;75.50;;;;;;5035115;28;20277;-79
2021/07/20 07:51:28;;;;;;;;;;;28.80;74.80;;;;;;5035007;28;19909;-78
2021/07/20 07:53:58;;;;;;;;;;;29.40;72.10;;;;;;5028819;28;20412;-78
2021/07/20 07:56:27;;;;;;;;;;;29.90;71.30;;;;;;5009145;28;20004;-79
2021/07/20 07:58:55;;;;;;;;;;;30.10;69.30;;;;;;5016177;28;19924;-78
2021/07/20 08:01:20;;;;;;;;;;;30.10;69.00;;;;;;5010137;28;19967;-78
2021/07/20 08:03:47;;;;;;;;;;;30.30;68.20;;;;;;5033655;28;19913;-78
2021/07/20 08:06:20;;;;;;;;;;;30.50;67.40;;;;;;5034343;28;19909;-78
2021/07/20 08:08:46;;;;;;;;;;;30.70;67.60;;;;;;5034122;28;20451;-80
2021/07/20 08:11:12;;;;;;;;;;;30.90;65.80;;;;;;5034162;28;19909;-79
2021/07/20 08:13:39;;;;;;;;;;;30.70;65.00;;;;;;5033022;28;19909;-79
2021/07/20 08:16:06;;;;;;;;;;;30.60;66.20;;;;;;5034102;28;20369;-77
2021/07/20 08:18:32;;;;;;;;;;;30.40;65.70;;;;;;5034328;28;19917;-78
2021/07/20 08:21:02;;;;;;;;;;;30.20;67.30;;;;;;5033688;28;19910;-78
2021/07/20 08:23:29;;;;;;;;;;;30.60;67.70;;;;;;5034143;28;20336;-79
2021/07/20 08:25:56;;;;;;;;;;;30.60;64.60;;;;;;5033992;28;19909;-79
2021/07/20 08:28:48;;;;;;;;;;;30.70;65.90;;;;;;5033767;28;20288;-78
2021/07/20 08:31:15;;;;;;;;;;;30.40;64.40;;;;;;5047886;28;19917;-79
2021/07/20 08:33:42;;;;;;;;;;;30.50;63.60;;;;;;5033915;28;19910;-79
2021/07/20 08:36:10;;;;;;;;;;;30.60;64.20;;;;;;5033831;28;19913;-77
2021/07/20 08:38:36;;;;;;;;;;;30.60;64.10;;;;;;5033943;28;19964;-78
2021/07/20 08:41:20;;;;;;;;;;;30.80;63.60;;;;;;5033184;28;20008;-79
2021/07/20 08:43:58;;;;;;;;;;;30.60;63.60;;;;;;5033794;28;19960;-79
2021/07/20 08:46:29;;;;;;;;;;;31.10;62.50;;;;;;5033795;28;19909;-78
2021/07/20 08:49:05;;;;;;;;;;;30.80;63.00;;;;;;5033667;28;20006;-79
2021/07/20 08:51:41;;;;;;;;;;;31.10;63.40;;;;;;5033654;28;20373;-79
2021/07/20 08:54:13;;;;;;;;;;;31.70;61.80;;;;;;5033932;28;19913;-78
2021/07/20 08:56:41;;;;;;;;;;;31.40;60.70;;;;;;5032298;28;19917;-77
2021/07/20 08:59:07;;;;;;;;;;;31.20;61.20;;;;;;5033364;28;19937;-78
2021/07/20 09:01:39;;;;;;;;;;;31.10;62.30;;;;;;5008055;28;20258;-78
2021/07/20 09:04:07;;;;;;;;;;;31.20;61.90;;;;;;5033492;28;19977;-78
2021/07/20 09:06:36;;;;;;;;;;;31.70;61.50;;;;;;5033472;28;19959;-78
2021/07/20 09:09:14;;;;;;;;;;;32.00;59.60;;;;;;5033326;28;19928;-78
2021/07/20 09:11:45;;;;;;;;;;;32.40;58.70;;;;;;5033319;28;19917;-80
2021/07/20 09:14:11;;;;;;;;;;;33.00;58.90;;;;;;5031768;28;19952;-79
2021/07/20 09:16:42;;;;;;;;;;;33.30;56.20;;;;;;5033162;28;19960;-79
2021/07/20 09:19:12;;;;;;;;;;;32.90;56.40;;;;;;5033031;28;19932;-79
2021/07/20 09:21:41;;;;;;;;;;;33.50;55.00;;;;;;5033346;28;20000;-78
2021/07/20 09:24:19;;;;;;;;;;;34.00;55.20;;;;;;5033141;28;19914;-78
2021/07/20 09:26:51;;;;;;;;;;;34.10;54.00;;;;;;5033224;28;19909;-78
2021/07/20 09:29:19;;;;;;;;;;;33.70;54.80;;;;;;5032725;28;19910;-78
2021/07/20 09:31:45;;;;;;;;;;;32.70;56.30;;;;;;5033146;28;19999;-79
2021/07/20 09:34:46;;;;;;;;;;;33.70;54.90;;;;;;5033170;28;19971;-79
2021/07/20 09:37:16;;;;;;;;;;;34.00;55.20;;;;;;5030912;28;19935;-79
2021/07/20 09:39:53;;;;;;;;;;;35.00;51.70;;;;;;5031172;28;19909;-79
2021/07/20 09:42:37;;;;;;;;;;;34.50;52.00;;;;;;5033121;28;19960;-79
2021/07/20 09:45:14;;;;;;;;;;;34.40;52.00;;;;;;5031744;28;20354;-77
2021/07/20 09:47:58;;;;;;;;;;;34.40;51.80;;;;;;5031804;28;19909;-78
2021/07/20 09:50:23;;;;;;;;;;;34.40;52.30;;;;;;5032634;28;20386;-79
2021/07/20 09:53:04;;;;;;;;;;;35.40;49.80;;;;;;5032915;28;19909;-79
2021/07/20 09:55:48;;;;;;;;;;;35.80;50.30;;;;;;5033103;28;19909;-79
2021/07/20 09:58:23;;;;;;;;;;;36.70;47.70;;;;;;5031537;28;20289;-79
2021/07/20 10:00:55;;;;;;;;;;;36.20;47.60;;;;;;5007044;28;20015;-79
2021/07/20 10:03:45;;;;;;;;;;;35.90;48.10;;;;;;5032862;28;20035;-78
2021/07/20 10:06:46;;;;;;;;;;;36.00;49.00;;;;;;5032837;28;20412;-78
2021/07/20 10:09:14;;;;;;;;;;;36.20;47.90;;;;;;5030093;28;19988;-80
2021/07/20 10:11:43;;;;;;;;;;;37.10;46.40;;;;;;5016178;28;19909;-78
2021/07/20 10:14:09;;;;;;;;;;;37.20;45.70;;;;;;5013043;28;20441;-80
2021/07/20 10:16:58;;;;;;;;;;;37.60;44.80;;;;;;5012809;28;20309;-77
2021/07/20 10:19:23;;;;;;;;;;;37.90;44.60;;;;;;5021140;28;20362;-77
2021/07/20 10:21:51;;;;;;;;;;;38.20;43.90;;;;;;5031476;28;19909;-74
2021/07/20 10:24:19;;;;;;;;;;;38.30;42.50;;;;;;5032472;28;19909;-77
2021/07/20 10:26:54;;;;;;;;;;;38.80;41.70;;;;;;5032995;28;19992;-77
2021/07/20 10:29:32;;;;;;;;;;;39.00;41.30;;;;;;5034613;28;19909;-76
2021/07/20 10:32:12;;;;;;;;;;;39.10;41.60;;;;;;5036144;28;19929;-78
2021/07/20 10:34:41;;;;;;;;;;;39.40;40.60;;;;;;5034545;28;20412;-77
2021/07/20 10:37:21;;;;;;;;;;;39.00;40.50;;;;;;5034664;28;20378;-76
2021/07/20 10:39:50;;;;;;;;;;;38.40;42.50;;;;;;5035821;28;19913;-76
2021/07/20 10:42:34;;;;;;;;;;;39.20;41.30;;;;;;5035913;28;19956;-76
2021/07/20 10:45:07;;;;;;;;;;;38.40;40.40;;;;;;5034556;28;20292;-75
2021/07/20 10:47:42;;;;;;;;;;;38.30;41.60;;;;;;5035653;28;19944;-76
2021/07/20 10:50:12;;;;;;;;;;;39.10;40.70;;;;;;5035458;28;19913;-77
2021/07/20 10:52:56;;;;;;;;;;;39.80;40.70;;;;;;5035525;28;19916;-77
2021/07/20 10:55:27;;;;;;;;;;;39.50;40.60;;;;;;5035664;28;19952;-76
2021/07/20 10:57:56;;;;;;;;;;;39.50;40.60;;;;;;5035647;28;19913;-77
2021/07/20 11:00:22;;;;;;;;;;;39.00;41.20;;;;;;5009787;28;20358;-77
2021/07/20 11:03:21;;;;;;;;;;;39.00;41.40;;;;;;5050665;28;19913;-76
2021/07/20 11:05:48;;;;;;;;;;;38.80;41.30;;;;;;5039529;28;19913;-78
2021/07/20 11:08:15;;;;;;;;;;;39.80;39.60;;;;;;5035229;28;19921;-76
2021/07/20 11:10:52;;;;;;;;;;;40.30;40.00;;;;;;5035021;28;19917;-76
2021/07/20 11:13:21;;;;;;;;;;;40.60;39.40;;;;;;5035464;28;20003;-79
2021/07/20 11:15:53;;;;;;;;;;;42.00;37.10;;;;;;5035228;28;19909;-79
2021/07/20 11:18:20;;;;;;;;;;;42.40;37.20;;;;;;5050317;28;20004;-78
2021/07/20 11:20:46;;;;;;;;;;;42.60;36.40;;;;;;5034819;28;19909;-79
2021/07/20 11:23:12;;;;;;;;;;;42.70;37.00;;;;;;5035059;28;19909;-76
2021/07/20 11:25:38;;;;;;;;;;;41.90;37.10;;;;;;5035122;28;19916;-76
2021/07/20 11:28:04;;;;;;;;;;;41.70;36.50;;;;;;5035454;28;20387;-77
2021/07/20 11:30:32;;;;;;;;;;;41.50;37.20;;;;;;5034808;28;19948;-78
2021/07/20 11:33:02;;;;;;;;;;;41.70;36.70;;;;;;5034760;28;19949;-76
2021/07/20 11:35:29;;;;;;;;;;;42.00;37.80;;;;;;5035068;28;19910;-77
2021/07/20 11:38:06;;;;;;;;;;;40.10;37.90;;;;;;5034656;28;19916;-76
2021/07/20 11:40:50;;;;;;;;;;;40.00;37.70;;;;;;5034485;28;19910;-75
2021/07/20 11:43:21;;;;;;;;;;;39.20;39.20;;;;;;5034851;28;19909;-77
2021/07/20 11:45:53;;;;;;;;;;;40.00;39.50;;;;;;5034890;28;19909;-77
2021/07/20 11:48:19;;;;;;;;;;;40.10;38.70;;;;;;5032999;28;19924;-76
2021/07/20 11:51:04;;;;;;;;;;;40.90;38.90;;;;;;5033143;28;19909;-77
2021/07/20 11:53:36;;;;;;;;;;;40.10;38.60;;;;;;5034522;28;20285;-78
2021/07/20 11:56:22;;;;;;;;;;;39.30;41.10;;;;;;5033464;28;19909;-77
2021/07/20 11:59:06;;;;;;;;;;;39.20;39.40;;;;;;5034888;28;19932;-77
2021/07/20 12:01:41;;;;;;;;;;;38.40;41.20;;;;;;5006869;28;19909;-77
2021/07/20 12:04:25;;;;;;;;;;;39.10;40.40;;;;;;5034300;28;19916;-78
2021/07/20 12:06:53;;;;;;;;;;;39.10;40.20;;;;;;5034246;28;19913;-75
2021/07/20 12:09:26;;;;;;;;;;;39.90;40.60;;;;;;5033962;28;19932;-77
2021/07/20 12:11:54;;;;;;;;;;;40.60;39.40;;;;;;5032529;28;19909;-77
2021/07/20 12:14:20;;;;;;;;;;;39.40;39.10;;;;;;5034230;28;19910;-77
2021/07/20 12:16:47;;;;;;;;;;;38.70;41.90;;;;;;5033047;28;19913;-78
2021/07/20 12:19:18;;;;;;;;;;;41.00;39.40;;;;;;5034224;28;19909;-76
2021/07/20 12:21:46;;;;;;;;;;;41.50;38.40;;;;;;5033885;28;19960;-76
2021/07/20 12:24:12;;;;;;;;;;;41.10;38.90;;;;;;5034041;28;19909;-77
2021/07/20 12:26:38;;;;;;;;;;;42.00;37.90;;;;;;5034052;28;19913;-76
2021/07/20 12:29:07;;;;;;;;;;;41.70;37.00;;;;;;5033862;28;19909;-78
2021/07/20 12:31:34;;;;;;;;;;;41.80;36.70;;;;;;5033632;28;19909;-77
2021/07/20 12:34:00;;;;;;;;;;;41.20;37.20;;;;;;5034029;28;19910;-74
2021/07/20 12:36:26;;;;;;;;;;;41.80;37.00;;;;;;5033841;28;19909;-75
2021/07/20 12:39:10;;;;;;;;;;;41.80;37.20;;;;;;5033983;28;20288;-76
2021/07/20 12:41:36;;;;;;;;;;;42.30;35.80;;;;;;5033390;28;19909;-77
2021/07/20 12:44:03;;;;;;;;;;;41.10;36.40;;;;;;5033702;28;19909;-76
2021/07/20 12:46:36;;;;;;;;;;;40.40;38.60;;;;;;5033303;28;19917;-78
2021/07/20 12:49:04;;;;;;;;;;;41.30;37.90;;;;;;5033036;28;20340;-76
2021/07/20 12:51:30;;;;;;;;;;;41.80;37.20;;;;;;5033089;28;20377;-77
2021/07/20 12:53:56;;;;;;;;;;;40.60;38.30;;;;;;5033575;28;19910;-75
2021/07/20 12:56:28;;;;;;;;;;;39.80;38.80;;;;;;5033410;28;20290;-76
2021/07/20 12:58:59;;;;;;;;;;;40.00;38.60;;;;;;5033462;28;19916;-76
2021/07/20 13:01:26;;;;;;;;;;;40.50;37.70;;;;;;5007588;28;19971;-77
2021/07/20 13:03:52;;;;;;;;;;;40.70;37.80;;;;;;5033236;28;19944;-76
2021/07/20 13:06:18;;;;;;;;;;;41.50;37.60;;;;;;5033237;28;20370;-77
2021/07/20 13:08:48;;;;;;;;;;;41.70;36.70;;;;;;5033161;28;19921;-77
2021/07/20 13:11:14;;;;;;;;;;;41.70;35.50;;;;;;5032836;28;19909;-76
2021/07/20 13:13:40;;;;;;;;;;;41.50;36.20;;;;;;5033503;28;19932;-76
2021/07/20 13:16:06;;;;;;;;;;;41.60;35.70;;;;;;5033191;28;20278;-78
2021/07/20 13:18:33;;;;;;;;;;;40.80;36.20;;;;;;5033234;28;20003;-76
2021/07/20 13:20:59;;;;;;;;;;;41.30;36.50;;;;;;5032779;28;19917;-74
2021/07/20 13:23:25;;;;;;;;;;;41.50;36.90;;;;;;5033250;28;19913;-77
2021/07/20 13:25:52;;;;;;;;;;;41.60;35.80;;;;;;5033174;28;19909;-75
2021/07/20 13:28:19;;;;;;;;;;;41.50;37.00;;;;;;5031653;28;20652;-75
2021/07/20 13:30:54;;;;;;;;;;;41.80;36.60;;;;;;5031389;28;20381;-77
2021/07/20 13:33:20;;;;;;;;;;;41.20;37.50;;;;;;5032795;28;20035;-76
2021/07/20 13:35:47;;;;;;;;;;;41.50;36.90;;;;;;5033222;28;19936;-76
2021/07/20 13:38:14;;;;;;;;;;;42.00;36.20;;;;;;5032661;28;19960;-77
2021/07/20 13:40:41;;;;;;;;;;;41.70;36.30;;;;;;5033317;28;19956;-76
2021/07/20 13:43:06;;;;;;;;;;;41.80;36.40;;;;;;5033339;28;19913;-77
2021/07/20 13:45:32;;;;;;;;;;;41.90;35.50;;;;;;5033330;28;19962;-76
2021/07/20 13:48:05;;;;;;;;;;;42.20;35.70;;;;;;5033266;28;19913;-75
2021/07/20 13:50:32;;;;;;;;;;;41.40;36.40;;;;;;5033417;28;19959;-76
2021/07/20 13:53:00;;;;;;;;;;;40.90;38.20;;;;;;5033261;28;19957;-76
2021/07/20 13:55:27;;;;;;;;;;;41.60;36.70;;;;;;5031957;28;20295;-76
2021/07/20 13:57:54;;;;;;;;;;;41.70;36.40;;;;;;5031885;28;19913;-77
2021/07/20 14:00:19;;;;;;;;;;;41.80;37.90;;;;;;5033184;28;19913;-74
2021/07/20 14:02:45;;;;;;;;;;;40.40;38.70;;;;;;5036516;28;19932;-78
2021/07/20 14:05:11;;;;;;;;;;;40.30;37.90;;;;;;5037086;28;19913;-76
2021/07/20 14:07:37;;;;;;;;;;;40.10;37.50;;;;;;5037041;28;20396;-76
2021/07/20 14:10:04;;;;;;;;;;;39.10;39.50;;;;;;5037162;28;19921;-76
2021/07/20 14:12:30;;;;;;;;;;;39.30;38.70;;;;;;5036824;28;19920;-76
2021/07/20 14:14:57;;;;;;;;;;;39.90;39.30;;;;;;5036843;28;19959;-76
2021/07/20 14:17:23;;;;;;;;;;;39.70;38.40;;;;;;5036766;28;19913;-76
2021/07/20 14:19:49;;;;;;;;;;;39.40;39.40;;;;;;5037026;28;19913;-78
2021/07/20 14:22:19;;;;;;;;;;;39.00;39.60;;;;;;5036734;28;19909;-76
2021/07/20 14:24:48;;;;;;;;;;;39.60;39.40;;;;;;5036556;28;20366;-75
2021/07/20 14:27:14;;;;;;;;;;;39.70;39.10;;;;;;5036525;28;20016;-75
2021/07/20 14:29:41;;;;;;;;;;;38.90;39.70;;;;;;5036635;28;19909;-76